sensor_id;sensor_type;location;lat;lon;timestamp;P1;durP1;ratioP1;P2;durP2;ratioP2
12852;SDS011;6495;51.808;7.478;2023-07-28T00:00:09;3.33;;;1.48;;
12852;SDS011;6495;51.808;7.478;2023-07-28T00:02:40;1.73;;;1.23;;
12852;SDS011;6495;51.808;7.478;2023-07-28T00:05:08;1.65;;;1.38;;
12852;SDS011;6495;51.808;7.478;2023-07-28T00:07:37;2.00;;;1.38;;
12852;SDS011;6495;51.808;7.478;2023-07-28T00:10:06;1.73;;;1.35;;
12852;SDS011;6495;51.808;7.478;2023-07-28T00:12:34;1.45;;;1.35;;
12852;SDS011;6495;51.808;7.478;2023-07-28T00:15:03;1.85;;;1.75;;
12852;SDS011;6495;51.808;7.478;2023-07-28T00:17:32;1.75;;;1.60;;
12852;SDS011;6495;51.808;7.478;2023-07-28T00:20:02;2.22;;;2.03;;
12852;SDS011;6495;51.808;7.478;2023-07-28T00:22:32;2.28;;;2.08;;
12852;SDS011;6495;51.808;7.478;2023-07-28T00:25:02;2.15;;;1.95;;
12852;SDS011;6495;51.808;7.478;2023-07-28T00:27:30;1.90;;;1.80;;
12852;SDS011;6495;51.808;7.478;2023-07-28T00:29:58;2.10;;;1.90;;
12852;SDS011;6495;51.808;7.478;2023-07-28T00:32:27;2.30;;;2.10;;
12852;SDS011;6495;51.808;7.478;2023-07-28T00:34:55;2.22;;;2.03;;
12852;SDS011;6495;51.808;7.478;2023-07-28T00:37:23;2.60;;;1.95;;
12852;SDS011;6495;51.808;7.478;2023-07-28T00:39:51;2.45;;;2.10;;
12852;SDS011;6495;51.808;7.478;2023-07-28T00:42:21;1.90;;;1.80;;
12852;SDS011;6495;51.808;7.478;2023-07-28T00:44:49;2.38;;;2.17;;
12852;SDS011;6495;51.808;7.478;2023-07-28T00:47:18;2.35;;;2.15;;
12852;SDS011;6495;51.808;7.478;2023-07-28T00:49:46;2.75;;;2.15;;
12852;SDS011;6495;51.808;7.478;2023-07-28T00:52:14;2.28;;;2.08;;
12852;SDS011;6495;51.808;7.478;2023-07-28T00:54:43;3.63;;;2.80;;
12852;SDS011;6495;51.808;7.478;2023-07-28T00:57:11;2.38;;;2.17;;
12852;SDS011;6495;51.808;7.478;2023-07-28T00:59:42;3.28;;;2.55;;
12852;SDS011;6495;51.808;7.478;2023-07-28T01:02:11;3.35;;;2.95;;
12852;SDS011;6495;51.808;7.478;2023-07-28T01:04:40;3.08;;;2.78;;
12852;SDS011;6495;51.808;7.478;2023-07-28T01:07:10;2.10;;;1.90;;
12852;SDS011;6495;51.808;7.478;2023-07-28T01:09:45;2.15;;;1.95;;
12852;SDS011;6495;51.808;7.478;2023-07-28T01:12:20;3.10;;;2.40;;
12852;SDS011;6495;51.808;7.478;2023-07-28T01:14:50;2.30;;;2.10;;
12852;SDS011;6495;51.808;7.478;2023-07-28T01:17:18;2.10;;;1.90;;
12852;SDS011;6495;51.808;7.478;2023-07-28T01:19:50;2.22;;;2.03;;
12852;SDS011;6495;51.808;7.478;2023-07-28T01:22:29;2.08;;;1.95;;
12852;SDS011;6495;51.808;7.478;2023-07-28T01:25:32;3.15;;;2.45;;
12852;SDS011;6495;51.808;7.478;2023-07-28T01:28:18;2.20;;;2.00;;
12852;SDS011;6495;51.808;7.478;2023-07-28T01:30:47;2.47;;;2.28;;
12852;SDS011;6495;51.808;7.478;2023-07-28T01:33:15;3.35;;;2.10;;
12852;SDS011;6495;51.808;7.478;2023-07-28T01:35:43;2.45;;;2.25;;
12852;SDS011;6495;51.808;7.478;2023-07-28T01:38:11;1.85;;;1.73;;
12852;SDS011;6495;51.808;7.478;2023-07-28T01:40:40;2.25;;;1.98;;
12852;SDS011;6495;51.808;7.478;2023-07-28T01:43:08;3.45;;;1.75;;
12852;SDS011;6495;51.808;7.478;2023-07-28T01:45:37;2.65;;;1.77;;
12852;SDS011;6495;51.808;7.478;2023-07-28T01:48:05;2.28;;;1.80;;
12852;SDS011;6495;51.808;7.478;2023-07-28T01:50:35;1.70;;;1.60;;
12852;SDS011;6495;51.808;7.478;2023-07-28T01:53:04;2.88;;;2.00;;
12852;SDS011;6495;51.808;7.478;2023-07-28T01:55:35;1.48;;;1.38;;
12852;SDS011;6495;51.808;7.478;2023-07-28T01:58:03;1.55;;;1.45;;
12852;SDS011;6495;51.808;7.478;2023-07-28T02:00:32;1.88;;;1.63;;
12852;SDS011;6495;51.808;7.478;2023-07-28T02:03:01;1.40;;;1.30;;
12852;SDS011;6495;51.808;7.478;2023-07-28T02:05:30;1.85;;;1.42;;
12852;SDS011;6495;51.808;7.478;2023-07-28T02:07:58;2.40;;;1.60;;
12852;SDS011;6495;51.808;7.478;2023-07-28T02:10:27;2.42;;;1.90;;
12852;SDS011;6495;51.808;7.478;2023-07-28T02:12:56;2.20;;;1.55;;
12852;SDS011;6495;51.808;7.478;2023-07-28T02:15:25;2.13;;;1.92;;
12852;SDS011;6495;51.808;7.478;2023-07-28T02:17:53;1.60;;;1.50;;
12852;SDS011;6495;51.808;7.478;2023-07-28T02:20:23;1.80;;;1.70;;
12852;SDS011;6495;51.808;7.478;2023-07-28T02:22:51;2.15;;;1.48;;
12852;SDS011;6495;51.808;7.478;2023-07-28T02:25:19;1.50;;;1.40;;
12852;SDS011;6495;51.808;7.478;2023-07-28T02:27:48;1.30;;;1.20;;
12852;SDS011;6495;51.808;7.478;2023-07-28T02:30:16;1.85;;;1.45;;
12852;SDS011;6495;51.808;7.478;2023-07-28T02:32:44;1.40;;;1.30;;
12852;SDS011;6495;51.808;7.478;2023-07-28T02:35:13;5.57;;;1.60;;
12852;SDS011;6495;51.808;7.478;2023-07-28T02:37:44;1.77;;;1.60;;
12852;SDS011;6495;51.808;7.478;2023-07-28T02:40:12;1.33;;;1.20;;
12852;SDS011;6495;51.808;7.478;2023-07-28T02:42:40;1.40;;;1.20;;
12852;SDS011;6495;51.808;7.478;2023-07-28T02:45:09;1.33;;;1.23;;
12852;SDS011;6495;51.808;7.478;2023-07-28T02:47:37;1.83;;;1.10;;
12852;SDS011;6495;51.808;7.478;2023-07-28T02:50:06;2.55;;;1.10;;
12852;SDS011;6495;51.808;7.478;2023-07-28T02:52:34;3.05;;;1.20;;
12852;SDS011;6495;51.808;7.478;2023-07-28T02:55:04;2.15;;;1.17;;
12852;SDS011;6495;51.808;7.478;2023-07-28T02:57:33;1.20;;;1.10;;
12852;SDS011;6495;51.808;7.478;2023-07-28T03:00:01;1.48;;;1.38;;
12852;SDS011;6495;51.808;7.478;2023-07-28T03:02:32;1.40;;;1.30;;
12852;SDS011;6495;51.808;7.478;2023-07-28T03:05:01;1.42;;;1.33;;
12852;SDS011;6495;51.808;7.478;2023-07-28T03:07:52;2.28;;;1.65;;
12852;SDS011;6495;51.808;7.478;2023-07-28T03:10:22;2.60;;;1.80;;
12852;SDS011;6495;51.808;7.478;2023-07-28T03:12:50;3.15;;;1.80;;
12852;SDS011;6495;51.808;7.478;2023-07-28T03:15:18;1.48;;;1.38;;
12852;SDS011;6495;51.808;7.478;2023-07-28T03:17:49;1.65;;;1.55;;
12852;SDS011;6495;51.808;7.478;2023-07-28T03:20:19;2.17;;;1.95;;
12852;SDS011;6495;51.808;7.478;2023-07-28T03:22:48;2.95;;;2.08;;
12852;SDS011;6495;51.808;7.478;2023-07-28T03:25:16;2.90;;;2.33;;
12852;SDS011;6495;51.808;7.478;2023-07-28T03:27:46;3.00;;;2.20;;
12852;SDS011;6495;51.808;7.478;2023-07-28T03:30:14;2.13;;;1.92;;
12852;SDS011;6495;51.808;7.478;2023-07-28T03:32:42;2.30;;;2.10;;
12852;SDS011;6495;51.808;7.478;2023-07-28T03:35:10;2.17;;;1.92;;
12852;SDS011;6495;51.808;7.478;2023-07-28T03:37:47;2.92;;;2.13;;
12852;SDS011;6495;51.808;7.478;2023-07-28T03:40:16;3.85;;;2.05;;
12852;SDS011;6495;51.808;7.478;2023-07-28T03:42:50;2.88;;;1.90;;
12852;SDS011;6495;51.808;7.478;2023-07-28T03:45:19;2.28;;;2.05;;
12852;SDS011;6495;51.808;7.478;2023-07-28T03:47:47;2.30;;;2.05;;
12852;SDS011;6495;51.808;7.478;2023-07-28T03:50:29;3.03;;;1.80;;
12852;SDS011;6495;51.808;7.478;2023-07-28T03:52:57;4.65;;;2.13;;
12852;SDS011;6495;51.808;7.478;2023-07-28T03:55:26;2.58;;;1.67;;
12852;SDS011;6495;51.808;7.478;2023-07-28T03:57:55;2.40;;;2.20;;
12852;SDS011;6495;51.808;7.478;2023-07-28T04:00:24;2.15;;;1.95;;
12852;SDS011;6495;51.808;7.478;2023-07-28T04:02:53;1.92;;;1.75;;
12852;SDS011;6495;51.808;7.478;2023-07-28T04:05:21;4.10;;;2.53;;
12852;SDS011;6495;51.808;7.478;2023-07-28T04:07:50;2.03;;;1.85;;
12852;SDS011;6495;51.808;7.478;2023-07-28T04:10:18;2.05;;;1.67;;
12852;SDS011;6495;51.808;7.478;2023-07-28T04:12:47;2.47;;;1.77;;
12852;SDS011;6495;51.808;7.478;2023-07-28T04:15:16;2.58;;;2.00;;
12852;SDS011;6495;51.808;7.478;2023-07-28T04:17:44;2.05;;;1.73;;
12852;SDS011;6495;51.808;7.478;2023-07-28T04:20:13;2.78;;;1.70;;
12852;SDS011;6495;51.808;7.478;2023-07-28T04:22:41;2.10;;;1.90;;
12852;SDS011;6495;51.808;7.478;2023-07-28T04:25:10;3.40;;;2.30;;
12852;SDS011;6495;51.808;7.478;2023-07-28T04:27:43;2.40;;;2.03;;
12852;SDS011;6495;51.808;7.478;2023-07-28T04:30:11;2.15;;;1.95;;
12852;SDS011;6495;51.808;7.478;2023-07-28T04:32:41;2.88;;;2.10;;
12852;SDS011;6495;51.808;7.478;2023-07-28T04:35:14;3.10;;;2.28;;
12852;SDS011;6495;51.808;7.478;2023-07-28T04:37:52;5.82;;;2.10;;
12852;SDS011;6495;51.808;7.478;2023-07-28T04:40:31;2.58;;;2.17;;
12852;SDS011;6495;51.808;7.478;2023-07-28T04:43:00;2.45;;;2.25;;
12852;SDS011;6495;51.808;7.478;2023-07-28T04:45:28;4.45;;;2.42;;
12852;SDS011;6495;51.808;7.478;2023-07-28T04:48:01;4.70;;;2.40;;
12852;SDS011;6495;51.808;7.478;2023-07-28T04:50:29;2.55;;;2.30;;
12852;SDS011;6495;51.808;7.478;2023-07-28T04:53:13;3.13;;;2.58;;
12852;SDS011;6495;51.808;7.478;2023-07-28T04:56:00;2.33;;;2.13;;
12852;SDS011;6495;51.808;7.478;2023-07-28T04:58:29;2.85;;;2.58;;
12852;SDS011;6495;51.808;7.478;2023-07-28T05:01:00;4.75;;;3.30;;
12852;SDS011;6495;51.808;7.478;2023-07-28T05:03:31;4.53;;;3.28;;
12852;SDS011;6495;51.808;7.478;2023-07-28T05:06:15;3.50;;;2.92;;
12852;SDS011;6495;51.808;7.478;2023-07-28T05:08:44;4.05;;;2.97;;
12852;SDS011;6495;51.808;7.478;2023-07-28T05:11:17;4.07;;;2.75;;
12852;SDS011;6495;51.808;7.478;2023-07-28T05:13:46;5.22;;;2.95;;
12852;SDS011;6495;51.808;7.478;2023-07-28T05:16:15;4.60;;;3.25;;
12852;SDS011;6495;51.808;7.478;2023-07-28T05:19:03;3.78;;;3.28;;
12852;SDS011;6495;51.808;7.478;2023-07-28T05:21:52;4.15;;;2.70;;
12852;SDS011;6495;51.808;7.478;2023-07-28T05:24:29;4.55;;;2.92;;
12852;SDS011;6495;51.808;7.478;2023-07-28T05:26:57;3.67;;;2.83;;
12852;SDS011;6495;51.808;7.478;2023-07-28T05:29:26;3.97;;;3.33;;
12852;SDS011;6495;51.808;7.478;2023-07-28T05:32:00;4.82;;;3.35;;
12852;SDS011;6495;51.808;7.478;2023-07-28T05:34:38;4.95;;;3.28;;
12852;SDS011;6495;51.808;7.478;2023-07-28T05:37:10;4.65;;;3.13;;
12852;SDS011;6495;51.808;7.478;2023-07-28T05:39:38;7.40;;;3.40;;
12852;SDS011;6495;51.808;7.478;2023-07-28T05:42:07;4.93;;;3.42;;
12852;SDS011;6495;51.808;7.478;2023-07-28T05:44:37;5.80;;;2.90;;
12852;SDS011;6495;51.808;7.478;2023-07-28T05:47:05;5.35;;;4.00;;
12852;SDS011;6495;51.808;7.478;2023-07-28T05:49:35;8.57;;;3.63;;
12852;SDS011;6495;51.808;7.478;2023-07-28T05:52:05;5.18;;;3.58;;
12852;SDS011;6495;51.808;7.478;2023-07-28T05:54:34;5.32;;;3.15;;
12852;SDS011;6495;51.808;7.478;2023-07-28T05:57:03;5.82;;;3.70;;
12852;SDS011;6495;51.808;7.478;2023-07-28T05:59:32;5.95;;;3.53;;
12852;SDS011;6495;51.808;7.478;2023-07-28T06:02:01;5.28;;;3.88;;
12852;SDS011;6495;51.808;7.478;2023-07-28T06:04:41;6.38;;;4.28;;
12852;SDS011;6495;51.808;7.478;2023-07-28T06:07:09;5.45;;;3.80;;
12852;SDS011;6495;51.808;7.478;2023-07-28T06:09:40;6.95;;;4.20;;
12852;SDS011;6495;51.808;7.478;2023-07-28T06:12:09;6.60;;;4.00;;
12852;SDS011;6495;51.808;7.478;2023-07-28T06:14:40;4.72;;;3.55;;
12852;SDS011;6495;51.808;7.478;2023-07-28T06:17:09;8.07;;;5.05;;
12852;SDS011;6495;51.808;7.478;2023-07-28T06:19:37;9.73;;;4.47;;
12852;SDS011;6495;51.808;7.478;2023-07-28T06:22:07;8.52;;;4.30;;
12852;SDS011;6495;51.808;7.478;2023-07-28T06:24:41;6.82;;;4.70;;
12852;SDS011;6495;51.808;7.478;2023-07-28T06:27:10;5.57;;;4.22;;
12852;SDS011;6495;51.808;7.478;2023-07-28T06:29:39;8.02;;;4.82;;
12852;SDS011;6495;51.808;7.478;2023-07-28T06:32:11;7.60;;;4.97;;
12852;SDS011;6495;51.808;7.478;2023-07-28T06:34:44;6.55;;;4.55;;
12852;SDS011;6495;51.808;7.478;2023-07-28T06:37:14;7.18;;;4.63;;
12852;SDS011;6495;51.808;7.478;2023-07-28T06:39:42;7.88;;;4.55;;
12852;SDS011;6495;51.808;7.478;2023-07-28T06:42:11;7.15;;;4.30;;
12852;SDS011;6495;51.808;7.478;2023-07-28T06:44:40;7.78;;;4.38;;
12852;SDS011;6495;51.808;7.478;2023-07-28T06:47:08;6.93;;;4.97;;
12852;SDS011;6495;51.808;7.478;2023-07-28T06:49:37;6.90;;;4.75;;
12852;SDS011;6495;51.808;7.478;2023-07-28T06:52:05;8.40;;;4.72;;
12852;SDS011;6495;51.808;7.478;2023-07-28T06:54:36;7.45;;;4.90;;
12852;SDS011;6495;51.808;7.478;2023-07-28T06:57:07;8.32;;;5.22;;
12852;SDS011;6495;51.808;7.478;2023-07-28T06:59:39;6.00;;;4.35;;
12852;SDS011;6495;51.808;7.478;2023-07-28T07:02:08;10.02;;;5.00;;
12852;SDS011;6495;51.808;7.478;2023-07-28T07:04:40;6.70;;;5.07;;
12852;SDS011;6495;51.808;7.478;2023-07-28T07:07:09;6.93;;;4.47;;
12852;SDS011;6495;51.808;7.478;2023-07-28T07:09:42;8.65;;;4.85;;
12852;SDS011;6495;51.808;7.478;2023-07-28T07:12:12;8.27;;;4.35;;
12852;SDS011;6495;51.808;7.478;2023-07-28T07:14:42;5.97;;;4.20;;
12852;SDS011;6495;51.808;7.478;2023-07-28T07:17:11;7.90;;;4.25;;
12852;SDS011;6495;51.808;7.478;2023-07-28T07:19:39;5.47;;;4.05;;
12852;SDS011;6495;51.808;7.478;2023-07-28T07:22:10;6.85;;;4.18;;
12852;SDS011;6495;51.808;7.478;2023-07-28T07:24:39;6.55;;;4.00;;
12852;SDS011;6495;51.808;7.478;2023-07-28T07:27:08;7.18;;;4.88;;
12852;SDS011;6495;51.808;7.478;2023-07-28T07:29:37;7.80;;;5.13;;
12852;SDS011;6495;51.808;7.478;2023-07-28T07:49:41;8.32;;;4.57;;
12852;SDS011;6495;51.808;7.478;2023-07-28T07:52:18;6.88;;;4.55;;
12852;SDS011;6495;51.808;7.478;2023-07-28T07:54:46;9.00;;;5.53;;
12852;SDS011;6495;51.808;7.478;2023-07-28T07:57:15;7.55;;;5.50;;
12852;SDS011;6495;51.808;7.478;2023-07-28T07:59:44;9.18;;;5.20;;
12852;SDS011;6495;51.808;7.478;2023-07-28T08:02:12;8.32;;;5.28;;
12852;SDS011;6495;51.808;7.478;2023-07-28T08:04:42;8.07;;;4.45;;
12852;SDS011;6495;51.808;7.478;2023-07-28T08:07:11;9.30;;;5.88;;
12852;SDS011;6495;51.808;7.478;2023-07-28T08:09:39;9.18;;;5.90;;
12852;SDS011;6495;51.808;7.478;2023-07-28T08:12:08;8.50;;;5.70;;
12852;SDS011;6495;51.808;7.478;2023-07-28T08:14:36;9.02;;;5.93;;
12852;SDS011;6495;51.808;7.478;2023-07-28T08:17:05;11.07;;;5.80;;
12852;SDS011;6495;51.808;7.478;2023-07-28T08:19:33;10.57;;;5.93;;
12852;SDS011;6495;51.808;7.478;2023-07-28T08:22:03;10.05;;;5.30;;
12852;SDS011;6495;51.808;7.478;2023-07-28T08:24:31;6.75;;;5.10;;
12852;SDS011;6495;51.808;7.478;2023-07-28T08:27:00;7.13;;;4.80;;
12852;SDS011;6495;51.808;7.478;2023-07-28T08:29:28;7.82;;;5.03;;
12852;SDS011;6495;51.808;7.478;2023-07-28T08:31:57;12.63;;;5.45;;
12852;SDS011;6495;51.808;7.478;2023-07-28T08:34:25;9.18;;;4.78;;
12852;SDS011;6495;51.808;7.478;2023-07-28T08:36:54;8.77;;;4.47;;
12852;SDS011;6495;51.808;7.478;2023-07-28T08:39:23;10.60;;;4.97;;
12852;SDS011;6495;51.808;7.478;2023-07-28T08:41:57;7.45;;;4.90;;
12852;SDS011;6495;51.808;7.478;2023-07-28T08:44:27;7.65;;;5.18;;
12852;SDS011;6495;51.808;7.478;2023-07-28T08:46:59;9.80;;;5.10;;
12852;SDS011;6495;51.808;7.478;2023-07-28T08:49:27;8.60;;;4.38;;
12852;SDS011;6495;51.808;7.478;2023-07-28T08:51:58;8.23;;;4.70;;
12852;SDS011;6495;51.808;7.478;2023-07-28T08:54:29;7.05;;;5.00;;
12852;SDS011;6495;51.808;7.478;2023-07-28T08:56:57;9.32;;;5.00;;
12852;SDS011;6495;51.808;7.478;2023-07-28T08:59:25;7.07;;;4.93;;
12852;SDS011;6495;51.808;7.478;2023-07-28T09:01:56;7.60;;;5.32;;
12852;SDS011;6495;51.808;7.478;2023-07-28T09:04:25;9.40;;;5.40;;
12852;SDS011;6495;51.808;7.478;2023-07-28T09:06:54;5.82;;;4.28;;
12852;SDS011;6495;51.808;7.478;2023-07-28T09:09:22;6.70;;;4.28;;
12852;SDS011;6495;51.808;7.478;2023-07-28T09:11:53;7.50;;;5.00;;
12852;SDS011;6495;51.808;7.478;2023-07-28T09:14:21;6.63;;;4.47;;
12852;SDS011;6495;51.808;7.478;2023-07-28T09:16:51;6.82;;;4.20;;
12852;SDS011;6495;51.808;7.478;2023-07-28T09:19:20;7.65;;;4.70;;
12852;SDS011;6495;51.808;7.478;2023-07-28T09:21:57;8.43;;;5.13;;
12852;SDS011;6495;51.808;7.478;2023-07-28T09:24:29;7.20;;;4.60;;
12852;SDS011;6495;51.808;7.478;2023-07-28T09:27:09;6.68;;;4.63;;
12852;SDS011;6495;51.808;7.478;2023-07-28T09:29:56;6.75;;;4.47;;
12852;SDS011;6495;51.808;7.478;2023-07-28T09:32:27;6.80;;;4.75;;
12852;SDS011;6495;51.808;7.478;2023-07-28T09:35:05;7.65;;;4.82;;
12852;SDS011;6495;51.808;7.478;2023-07-28T09:37:37;8.15;;;4.78;;
12852;SDS011;6495;51.808;7.478;2023-07-28T09:40:08;11.65;;;5.35;;
12852;SDS011;6495;51.808;7.478;2023-07-28T09:42:43;7.93;;;5.15;;
12852;SDS011;6495;51.808;7.478;2023-07-28T09:45:20;8.32;;;5.13;;
12852;SDS011;6495;51.808;7.478;2023-07-28T09:48:07;9.68;;;5.47;;
12852;SDS011;6495;51.808;7.478;2023-07-28T09:50:40;9.20;;;4.95;;
12852;SDS011;6495;51.808;7.478;2023-07-28T09:53:10;8.15;;;5.93;;
12852;SDS011;6495;51.808;7.478;2023-07-28T09:55:42;10.02;;;6.75;;
12852;SDS011;6495;51.808;7.478;2023-07-28T09:58:12;9.15;;;6.28;;
12852;SDS011;6495;51.808;7.478;2023-07-28T10:00:48;9.90;;;6.85;;
12852;SDS011;6495;51.808;7.478;2023-07-28T10:03:18;10.05;;;6.70;;
12852;SDS011;6495;51.808;7.478;2023-07-28T10:05:46;9.00;;;6.72;;
12852;SDS011;6495;51.808;7.478;2023-07-28T10:08:16;8.07;;;5.93;;
12852;SDS011;6495;51.808;7.478;2023-07-28T10:10:44;7.93;;;5.90;;
12852;SDS011;6495;51.808;7.478;2023-07-28T10:13:22;10.10;;;6.25;;
12852;SDS011;6495;51.808;7.478;2023-07-28T10:15:50;9.77;;;5.90;;
12852;SDS011;6495;51.808;7.478;2023-07-28T10:18:19;7.82;;;6.07;;
12852;SDS011;6495;51.808;7.478;2023-07-28T10:20:48;11.30;;;6.35;;
12852;SDS011;6495;51.808;7.478;2023-07-28T10:23:19;7.00;;;5.05;;
12852;SDS011;6495;51.808;7.478;2023-07-28T10:25:55;6.60;;;5.30;;
12852;SDS011;6495;51.808;7.478;2023-07-28T10:28:29;6.78;;;4.95;;
12852;SDS011;6495;51.808;7.478;2023-07-28T10:30:59;6.55;;;5.03;;
12852;SDS011;6495;51.808;7.478;2023-07-28T10:33:29;7.80;;;5.47;;
12852;SDS011;6495;51.808;7.478;2023-07-28T10:36:05;7.75;;;5.18;;
12852;SDS011;6495;51.808;7.478;2023-07-28T10:38:42;7.80;;;5.10;;
12852;SDS011;6495;51.808;7.478;2023-07-28T10:41:13;6.97;;;5.57;;
12852;SDS011;6495;51.808;7.478;2023-07-28T10:43:45;6.18;;;4.70;;
12852;SDS011;6495;51.808;7.478;2023-07-28T10:46:14;6.63;;;5.03;;
12852;SDS011;6495;51.808;7.478;2023-07-28T10:48:47;10.25;;;5.00;;
12852;SDS011;6495;51.808;7.478;2023-07-28T10:51:23;5.97;;;4.10;;
12852;SDS011;6495;51.808;7.478;2023-07-28T10:53:59;6.30;;;4.00;;
12852;SDS011;6495;51.808;7.478;2023-07-28T10:56:29;5.63;;;4.57;;
12852;SDS011;6495;51.808;7.478;2023-07-28T10:59:03;4.70;;;4.03;;
12852;SDS011;6495;51.808;7.478;2023-07-28T11:01:32;4.50;;;3.28;;
12852;SDS011;6495;51.808;7.478;2023-07-28T11:04:07;5.47;;;3.58;;
12852;SDS011;6495;51.808;7.478;2023-07-28T11:06:37;6.50;;;3.38;;
12852;SDS011;6495;51.808;7.478;2023-07-28T11:12:08;5.03;;;3.97;;
12852;SDS011;6495;51.808;7.478;2023-07-28T11:14:38;3.40;;;3.00;;
12852;SDS011;6495;51.808;7.478;2023-07-28T11:17:07;3.95;;;2.80;;
12852;SDS011;6495;51.808;7.478;2023-07-28T11:19:37;4.78;;;3.28;;
12852;SDS011;6495;51.808;7.478;2023-07-28T11:22:05;3.67;;;3.25;;
12852;SDS011;6495;51.808;7.478;2023-07-28T11:24:33;3.60;;;3.30;;
12852;SDS011;6495;51.808;7.478;2023-07-28T11:27:02;4.38;;;3.80;;
12852;SDS011;6495;51.808;7.478;2023-07-28T11:29:34;5.00;;;3.53;;
12852;SDS011;6495;51.808;7.478;2023-07-28T11:32:05;5.35;;;3.78;;
12852;SDS011;6495;51.808;7.478;2023-07-28T11:34:36;6.30;;;3.58;;
12852;SDS011;6495;51.808;7.478;2023-07-28T11:37:08;3.03;;;2.67;;
12852;SDS011;6495;51.808;7.478;2023-07-28T11:39:37;4.25;;;2.80;;
12852;SDS011;6495;51.808;7.478;2023-07-28T11:42:07;2.50;;;2.30;;
12852;SDS011;6495;51.808;7.478;2023-07-28T11:44:37;3.28;;;2.63;;
12852;SDS011;6495;51.808;7.478;2023-07-28T11:47:07;2.17;;;1.98;;
12852;SDS011;6495;51.808;7.478;2023-07-28T11:49:35;2.58;;;2.30;;
12852;SDS011;6495;51.808;7.478;2023-07-28T11:52:15;2.83;;;2.30;;
12852;SDS011;6495;51.808;7.478;2023-07-28T11:54:43;2.33;;;2.13;;
12852;SDS011;6495;51.808;7.478;2023-07-28T11:57:23;2.47;;;2.28;;
12852;SDS011;6495;51.808;7.478;2023-07-28T12:00:06;3.60;;;2.25;;
12852;SDS011;6495;51.808;7.478;2023-07-28T12:02:40;3.35;;;2.28;;
12852;SDS011;6495;51.808;7.478;2023-07-28T12:05:11;2.70;;;2.50;;
12852;SDS011;6495;51.808;7.478;2023-07-28T12:07:47;2.80;;;2.50;;
12852;SDS011;6495;51.808;7.478;2023-07-28T12:10:18;3.45;;;3.15;;
12852;SDS011;6495;51.808;7.478;2023-07-28T12:12:49;3.13;;;2.78;;
12852;SDS011;6495;51.808;7.478;2023-07-28T12:15:24;3.88;;;3.47;;
12852;SDS011;6495;51.808;7.478;2023-07-28T12:18:11;3.72;;;3.38;;
12852;SDS011;6495;51.808;7.478;2023-07-28T12:20:46;4.40;;;3.92;;
12852;SDS011;6495;51.808;7.478;2023-07-28T12:23:18;4.95;;;4.50;;
12852;SDS011;6495;51.808;7.478;2023-07-28T12:25:51;4.57;;;4.10;;
12852;SDS011;6495;51.808;7.478;2023-07-28T12:28:23;3.42;;;3.13;;
12852;SDS011;6495;51.808;7.478;2023-07-28T12:34:11;3.03;;;2.72;;
12852;SDS011;6495;51.808;7.478;2023-07-28T12:37:00;4.82;;;2.92;;
12852;SDS011;6495;51.808;7.478;2023-07-28T12:39:29;3.53;;;2.25;;
12852;SDS011;6495;51.808;7.478;2023-07-28T12:42:00;3.08;;;2.58;;
12852;SDS011;6495;51.808;7.478;2023-07-28T12:44:31;2.95;;;2.65;;
12852;SDS011;6495;51.808;7.478;2023-07-28T12:47:02;2.58;;;2.38;;
12852;SDS011;6495;51.808;7.478;2023-07-28T12:49:40;2.47;;;2.28;;
12852;SDS011;6495;51.808;7.478;2023-07-28T12:52:17;2.60;;;2.40;;
12852;SDS011;6495;51.808;7.478;2023-07-28T12:54:50;2.38;;;2.17;;
12852;SDS011;6495;51.808;7.478;2023-07-28T12:57:18;2.28;;;2.08;;
12852;SDS011;6495;51.808;7.478;2023-07-28T12:59:46;2.15;;;1.95;;
12852;SDS011;6495;51.808;7.478;2023-07-28T13:02:18;2.05;;;1.73;;
12852;SDS011;6495;51.808;7.478;2023-07-28T13:04:47;1.83;;;1.73;;
12852;SDS011;6495;51.808;7.478;2023-07-28T13:07:16;1.88;;;1.70;;
12852;SDS011;6495;51.808;7.478;2023-07-28T13:09:53;1.85;;;1.60;;
12852;SDS011;6495;51.808;7.478;2023-07-28T13:12:21;3.45;;;1.60;;
12852;SDS011;6495;51.808;7.478;2023-07-28T13:14:52;1.50;;;1.40;;
12852;SDS011;6495;51.808;7.478;2023-07-28T13:17:21;2.97;;;1.60;;
12852;SDS011;6495;51.808;7.478;2023-07-28T13:19:52;1.67;;;1.58;;
12852;SDS011;6495;51.808;7.478;2023-07-28T13:22:20;1.50;;;1.40;;
12852;SDS011;6495;51.808;7.478;2023-07-28T13:24:48;1.70;;;1.60;;
12852;SDS011;6495;51.808;7.478;2023-07-28T13:27:16;1.92;;;1.70;;
12852;SDS011;6495;51.808;7.478;2023-07-28T13:29:44;2.50;;;1.50;;
12852;SDS011;6495;51.808;7.478;2023-07-28T13:32:18;2.60;;;1.75;;
12852;SDS011;6495;51.808;7.478;2023-07-28T13:34:57;2.10;;;1.90;;
12852;SDS011;6495;51.808;7.478;2023-07-28T13:37:25;2.17;;;1.98;;
12852;SDS011;6495;51.808;7.478;2023-07-28T13:39:53;3.35;;;2.20;;
12852;SDS011;6495;51.808;7.478;2023-07-28T13:42:21;2.00;;;1.90;;
12852;SDS011;6495;51.808;7.478;2023-07-28T13:44:49;3.50;;;2.58;;
12852;SDS011;6495;51.808;7.478;2023-07-28T13:47:20;1.90;;;1.80;;
12852;SDS011;6495;51.808;7.478;2023-07-28T13:49:49;2.47;;;1.80;;
12852;SDS011;6495;51.808;7.478;2023-07-28T13:52:19;2.30;;;2.10;;
12852;SDS011;6495;51.808;7.478;2023-07-28T13:54:48;2.13;;;1.92;;
12852;SDS011;6495;51.808;7.478;2023-07-28T13:57:19;2.80;;;1.88;;
12852;SDS011;6495;51.808;7.478;2023-07-28T13:59:47;2.15;;;1.95;;
12852;SDS011;6495;51.808;7.478;2023-07-28T14:02:16;2.92;;;1.70;;
12852;SDS011;6495;51.808;7.478;2023-07-28T14:04:45;1.60;;;1.50;;
12852;SDS011;6495;51.808;7.478;2023-07-28T14:07:13;1.80;;;1.70;;
12852;SDS011;6495;51.808;7.478;2023-07-28T14:09:43;2.33;;;2.00;;
12852;SDS011;6495;51.808;7.478;2023-07-28T14:12:11;2.17;;;1.88;;
12852;SDS011;6495;51.808;7.478;2023-07-28T14:14:39;2.40;;;2.20;;
12852;SDS011;6495;51.808;7.478;2023-07-28T14:17:07;4.30;;;3.33;;
12852;SDS011;6495;51.808;7.478;2023-07-28T14:19:37;2.95;;;2.75;;
12852;SDS011;6495;51.808;7.478;2023-07-28T14:22:06;3.58;;;2.90;;
12852;SDS011;6495;51.808;7.478;2023-07-28T14:24:35;4.30;;;3.00;;
12852;SDS011;6495;51.808;7.478;2023-07-28T14:27:05;3.60;;;2.55;;
12852;SDS011;6495;51.808;7.478;2023-07-28T14:29:33;2.70;;;2.50;;
12852;SDS011;6495;51.808;7.478;2023-07-28T14:32:01;4.05;;;3.03;;
12852;SDS011;6495;51.808;7.478;2023-07-28T14:34:30;4.30;;;2.70;;
12852;SDS011;6495;51.808;7.478;2023-07-28T14:37:00;3.17;;;2.80;;
12852;SDS011;6495;51.808;7.478;2023-07-28T14:39:32;4.60;;;2.85;;
12852;SDS011;6495;51.808;7.478;2023-07-28T14:42:00;3.00;;;2.67;;
12852;SDS011;6495;51.808;7.478;2023-07-28T14:44:30;2.67;;;2.47;;
12852;SDS011;6495;51.808;7.478;2023-07-28T14:46:58;3.97;;;2.03;;
12852;SDS011;6495;51.808;7.478;2023-07-28T14:49:27;1.73;;;1.63;;
12852;SDS011;6495;51.808;7.478;2023-07-28T14:51:55;2.10;;;1.90;;
12852;SDS011;6495;51.808;7.478;2023-07-28T14:54:23;1.90;;;1.80;;
12852;SDS011;6495;51.808;7.478;2023-07-28T14:56:52;2.08;;;1.70;;
12852;SDS011;6495;51.808;7.478;2023-07-28T14:59:20;2.35;;;2.15;;
12852;SDS011;6495;51.808;7.478;2023-07-28T15:01:49;2.00;;;1.90;;
12852;SDS011;6495;51.808;7.478;2023-07-28T15:04:18;2.15;;;1.95;;
12852;SDS011;6495;51.808;7.478;2023-07-28T15:06:46;2.40;;;2.20;;
12852;SDS011;6495;51.808;7.478;2023-07-28T15:09:14;3.47;;;1.70;;
12852;SDS011;6495;51.808;7.478;2023-07-28T15:11:46;1.85;;;1.75;;
12852;SDS011;6495;51.808;7.478;2023-07-28T15:14:14;1.92;;;1.83;;
12852;SDS011;6495;51.808;7.478;2023-07-28T15:16:43;2.33;;;2.03;;
12852;SDS011;6495;51.808;7.478;2023-07-28T15:19:12;2.75;;;1.70;;
12852;SDS011;6495;51.808;7.478;2023-07-28T15:21:40;1.83;;;1.73;;
12852;SDS011;6495;51.808;7.478;2023-07-28T15:24:09;1.70;;;1.60;;
12852;SDS011;6495;51.808;7.478;2023-07-28T15:26:37;1.67;;;1.52;;
12852;SDS011;6495;51.808;7.478;2023-07-28T15:29:05;3.08;;;1.63;;
12852;SDS011;6495;51.808;7.478;2023-07-28T15:31:34;1.60;;;1.50;;
12852;SDS011;6495;51.808;7.478;2023-07-28T15:34:02;1.48;;;1.38;;
12852;SDS011;6495;51.808;7.478;2023-07-28T15:36:32;1.42;;;1.33;;
12852;SDS011;6495;51.808;7.478;2023-07-28T15:39:00;1.55;;;1.30;;
12852;SDS011;6495;51.808;7.478;2023-07-28T15:41:29;1.33;;;1.23;;
12852;SDS011;6495;51.808;7.478;2023-07-28T15:43:57;1.40;;;1.30;;